Time;durP1;ratioP1;P1;durP2;ratioP2;P2;SDS_P1;SDS_P2;PMS_P1;PMS_P2;Temp;Humidity;BMP_temperature;BMP_pressure;BME280_temperature;BME280_humidity;BME280_pressure;Samples;Min_cycle;Max_cycle;Signal;HPM_P1;HPM_P2
2024/01/31 00:00:44;;;;;;;;;3.00;3.00;;;;;;;;5074712;28;11840;-79
2024/01/31 00:03:11;;;;;;;;;4.50;3.25;;;;;;;;5091027;28;11525;-80
2024/01/31 00:05:38;;;;;;;;;3.00;3.00;;;;;;;;5072769;28;11456;-80
2024/01/31 00:08:06;;;;;;;;;5.25;3.00;;;;;;;;5070483;28;11444;-80
2024/01/31 00:10:34;;;;;;;;;3.50;2.50;;;;;;;;5068725;28;12146;-80
2024/01/31 00:13:02;;;;;;;;;4.25;2.50;;;;;;;;5052529;28;11423;-79
2024/01/31 00:15:29;;;;;;;;;3.50;2.00;;;;;;;;5070971;28;12176;-80
2024/01/31 00:17:56;;;;;;;;;0.75;0.25;;;;;;;;5088245;28;11434;-80
2024/01/31 00:20:24;;;;;;;;;2.00;2.00;;;;;;;;5079646;28;11489;-80
2024/01/31 00:22:51;;;;;;;;;2.50;2.50;;;;;;;;5063559;28;11432;-80
2024/01/31 00:25:18;;;;;;;;;2.50;1.50;;;;;;;;5068238;28;11492;-81
2024/01/31 00:27:47;;;;;;;;;2.00;2.00;;;;;;;;5068359;28;11606;-80
2024/01/31 00:30:15;;;;;;;;;2.00;2.00;;;;;;;;5067349;28;12189;-80
2024/01/31 00:32:42;;;;;;;;;2.00;2.00;;;;;;;;5070278;28;11420;-80
2024/01/31 00:35:09;;;;;;;;;4.50;3.00;;;;;;;;5067633;28;11444;-80
2024/01/31 00:37:36;;;;;;;;;3.00;3.00;;;;;;;;5069263;28;11556;-81
2024/01/31 00:40:05;;;;;;;;;6.00;4.50;;;;;;;;5069051;28;12245;-81
2024/01/31 00:42:33;;;;;;;;;3.00;3.00;;;;;;;;5072568;28;11437;-81
2024/01/31 00:45:03;;;;;;;;;2.00;2.00;;;;;;;;5071888;28;11539;-81
2024/01/31 00:47:30;;;;;;;;;2.25;2.25;;;;;;;;5069035;28;11430;-81
2024/01/31 00:49:57;;;;;;;;;1.75;1.75;;;;;;;;5069022;28;11894;-80
2024/01/31 00:52:24;;;;;;;;;3.50;3.50;;;;;;;;5070242;28;11546;-80
2024/01/31 00:54:52;;;;;;;;;1.00;1.00;;;;;;;;5068458;28;11510;-79
2024/01/31 00:57:19;;;;;;;;;2.25;2.25;;;;;;;;5069625;28;11508;-79
2024/01/31 00:59:47;;;;;;;;;1.50;1.50;;;;;;;;5069087;28;11439;-80
2024/01/31 01:02:16;;;;;;;;;3.00;3.00;;;;;;;;5068865;28;11462;-79
2024/01/31 01:04:44;;;;;;;;;3.00;3.00;;;;;;;;5051224;28;11804;-79
2024/01/31 01:07:11;;;;;;;;;6.00;3.00;;;;;;;;5068860;28;11456;-81
2024/01/31 01:09:38;;;;;;;;;2.00;2.00;;;;;;;;5058525;28;11533;-81
2024/01/31 01:12:06;;;;;;;;;1.00;1.00;;;;;;;;5069654;28;11591;-79
2024/01/31 01:14:33;;;;;;;;;3.00;3.00;;;;;;;;5070603;28;11527;-80
2024/01/31 01:17:00;;;;;;;;;3.00;3.00;;;;;;;;5071025;28;11463;-80
2024/01/31 01:19:29;;;;;;;;;6.50;2.25;;;;;;;;5072834;28;11878;-79
2024/01/31 01:21:56;;;;;;;;;13.00;11.00;;;;;;;;5075458;28;11427;-80
2024/01/31 01:24:24;;;;;;;;;10.50;10.50;;;;;;;;5075157;28;11524;-80
2024/01/31 01:26:51;;;;;;;;;10.75;10.75;;;;;;;;5069854;28;11527;-79
2024/01/31 01:29:19;;;;;;;;;19.50;16.50;;;;;;;;5070421;28;11536;-79
2024/01/31 01:31:46;;;;;;;;;6.00;6.00;;;;;;;;5071150;28;11561;-79
2024/01/31 01:34:13;;;;;;;;;7.25;5.75;;;;;;;;5071069;28;11437;-80
2024/01/31 01:36:42;;;;;;;;;7.25;7.25;;;;;;;;5063414;28;11498;-80
2024/01/31 01:39:09;;;;;;;;;7.25;7.25;;;;;;;;5062491;28;11508;-81
2024/01/31 01:41:36;;;;;;;;;9.00;8.25;;;;;;;;5065737;28;11483;-79
2024/01/31 01:44:04;;;;;;;;;3.00;3.00;;;;;;;;5071617;28;11467;-79
2024/01/31 01:46:35;;;;;;;;;6.75;6.75;;;;;;;;5065917;28;11617;-80
2024/01/31 01:49:02;;;;;;;;;4.00;4.00;;;;;;;;5057325;28;11617;-80
2024/01/31 01:51:30;;;;;;;;;3.00;2.00;;;;;;;;5061751;28;11486;-79
2024/01/31 01:53:59;;;;;;;;;5.00;5.00;;;;;;;;5068252;28;11441;-80
2024/01/31 01:56:26;;;;;;;;;4.00;4.00;;;;;;;;5068039;28;11470;-79
2024/01/31 01:58:54;;;;;;;;;5.00;2.25;;;;;;;;5067699;28;12091;-79
2024/01/31 02:01:21;;;;;;;;;4.00;4.00;;;;;;;;5067554;28;11432;-81
2024/01/31 02:03:55;;;;;;;;;2.25;2.25;;;;;;;;5068425;28;11656;-79
2024/01/31 02:06:23;;;;;;;;;5.25;3.50;;;;;;;;5068536;28;11480;-79
2024/01/31 02:08:54;;;;;;;;;6.00;2.00;;;;;;;;5067862;28;11504;-80
2024/01/31 02:11:24;;;;;;;;;2.50;2.50;;;;;;;;5068905;28;11513;-80
2024/01/31 02:13:51;;;;;;;;;5.50;3.50;;;;;;;;5067327;28;11437;-80
2024/01/31 02:16:18;;;;;;;;;5.25;3.25;;;;;;;;5068760;28;11485;-80
2024/01/31 02:18:46;;;;;;;;;3.00;3.00;;;;;;;;5068641;28;11633;-80
2024/01/31 02:21:15;;;;;;;;;2.75;2.75;;;;;;;;5068710;28;12363;-80
2024/01/31 02:23:44;;;;;;;;;2.00;2.00;;;;;;;;5067991;28;11471;-80
2024/01/31 02:26:14;;;;;;;;;3.00;3.00;;;;;;;;5068535;28;11536;-80
2024/01/31 02:28:41;;;;;;;;;2.75;2.75;;;;;;;;5067852;28;11485;-80
2024/01/31 02:31:11;;;;;;;;;4.50;4.50;;;;;;;;5068065;28;11832;-80
2024/01/31 02:33:38;;;;;;;;;6.75;6.75;;;;;;;;5067975;28;11599;-81
2024/01/31 02:36:06;;;;;;;;;3.00;3.00;;;;;;;;5069231;28;11504;-81
2024/01/31 02:38:34;;;;;;;;;4.50;4.50;;;;;;;;5060936;28;11490;-80
2024/01/31 02:41:02;;;;;;;;;4.75;4.75;;;;;;;;5050640;28;12330;-80
2024/01/31 02:43:30;;;;;;;;;3.00;3.00;;;;;;;;5054890;28;11615;-79
2024/01/31 02:45:57;;;;;;;;;6.00;5.00;;;;;;;;5065419;28;11465;-80
2024/01/31 02:48:24;;;;;;;;;5.00;5.00;;;;;;;;5059532;28;11513;-79
2024/01/31 02:50:52;;;;;;;;;3.75;2.50;;;;;;;;5069115;28;11484;-80
2024/01/31 02:53:19;;;;;;;;;6.25;6.00;;;;;;;;5072625;28;11556;-80
2024/01/31 02:55:46;;;;;;;;;5.00;2.75;;;;;;;;5071977;28;11480;-80
2024/01/31 02:58:15;;;;;;;;;3.00;3.00;;;;;;;;5061664;28;11461;-80
2024/01/31 03:00:42;;;;;;;;;4.25;3.75;;;;;;;;5076064;28;11413;-80
2024/01/31 03:03:09;;;;;;;;;2.00;2.00;;;;;;;;5077490;28;11590;-80
2024/01/31 03:05:36;;;;;;;;;4.50;4.50;;;;;;;;5079340;28;11606;-80
2024/01/31 03:08:04;;;;;;;;;1.00;1.00;;;;;;;;5081217;28;11596;-80
2024/01/31 03:10:32;;;;;;;;;3.50;3.50;;;;;;;;5080557;28;11537;-81
2024/01/31 03:12:59;;;;;;;;;3.50;3.50;;;;;;;;5069875;28;11498;-80
2024/01/31 03:15:28;;;;;;;;;6.00;5.50;;;;;;;;5084899;28;11575;-79
2024/01/31 03:17:56;;;;;;;;;6.00;6.00;;;;;;;;5080933;28;11499;-80
2024/01/31 03:20:23;;;;;;;;;5.25;5.25;;;;;;;;5068449;28;11566;-80
2024/01/31 03:22:50;;;;;;;;;5.00;5.00;;;;;;;;5062458;28;11462;-81
2024/01/31 03:25:17;;;;;;;;;4.50;4.50;;;;;;;;5076194;28;11464;-80
2024/01/31 03:27:45;;;;;;;;;2.75;2.75;;;;;;;;5072446;28;11513;-79
2024/01/31 03:30:12;;;;;;;;;6.75;5.00;;;;;;;;5061174;28;11490;-79
2024/01/31 03:32:42;;;;;;;;;5.25;3.00;;;;;;;;5071062;28;11637;-80
2024/01/31 03:35:09;;;;;;;;;5.00;5.00;;;;;;;;5062952;28;11479;-79
2024/01/31 03:37:36;;;;;;;;;4.00;4.00;;;;;;;;5060247;28;11519;-80
2024/01/31 03:40:06;;;;;;;;;5.00;5.00;;;;;;;;5071296;28;11494;-80
2024/01/31 03:42:33;;;;;;;;;12.50;10.25;;;;;;;;5071147;28;11603;-79
2024/01/31 03:45:03;;;;;;;;;9.50;9.50;;;;;;;;5072876;28;11552;-80
2024/01/31 03:47:33;;;;;;;;;6.50;5.50;;;;;;;;5057609;28;11529;-80
2024/01/31 03:50:04;;;;;;;;;2.25;2.25;;;;;;;;5071013;28;11517;-80
2024/01/31 03:52:31;;;;;;;;;12.50;10.50;;;;;;;;5071026;28;11450;-79
2024/01/31 03:54:59;;;;;;;;;14.50;8.00;;;;;;;;5070770;28;11523;-79
2024/01/31 03:57:27;;;;;;;;;10.25;10.25;;;;;;;;5071271;28;11513;-79
2024/01/31 03:59:54;;;;;;;;;7.25;6.75;;;;;;;;5070804;28;12325;-79
2024/01/31 04:02:23;;;;;;;;;10.00;7.75;;;;;;;;5058049;28;11595;-79
2024/01/31 04:04:50;;;;;;;;;6.75;6.75;;;;;;;;5070300;28;11538;-80
2024/01/31 04:07:19;;;;;;;;;7.00;6.00;;;;;;;;5071358;28;11552;-79
2024/01/31 04:09:46;;;;;;;;;7.00;7.00;;;;;;;;5069549;28;12196;-79
2024/01/31 04:12:13;;;;;;;;;3.25;2.25;;;;;;;;5070744;28;11554;-79
2024/01/31 04:14:40;;;;;;;;;7.00;7.00;;;;;;;;5070476;28;11412;-79
2024/01/31 04:17:08;;;;;;;;;8.00;8.00;;;;;;;;5070515;28;11429;-80
2024/01/31 04:19:35;;;;;;;;;7.75;6.25;;;;;;;;5070298;28;11605;-79
2024/01/31 04:22:02;;;;;;;;;9.00;9.00;;;;;;;;5070703;28;11435;-79
2024/01/31 04:24:31;;;;;;;;;4.25;4.25;;;;;;;;5070129;28;11555;-80
2024/01/31 04:26:58;;;;;;;;;10.75;8.50;;;;;;;;5070713;28;11613;-79
2024/01/31 04:29:25;;;;;;;;;8.25;6.75;;;;;;;;5069997;28;11433;-80
2024/01/31 04:31:52;;;;;;;;;7.75;7.75;;;;;;;;5069698;28;11414;-80
2024/01/31 04:34:21;;;;;;;;;11.00;11.00;;;;;;;;5068248;28;11429;-80
2024/01/31 04:36:48;;;;;;;;;16.75;13.00;;;;;;;;5070483;28;11396;-79
2024/01/31 04:39:16;;;;;;;;;12.00;12.00;;;;;;;;5070347;28;11437;-80
2024/01/31 04:41:46;;;;;;;;;12.50;12.00;;;;;;;;5071337;28;11464;-80
2024/01/31 04:44:14;;;;;;;;;14.50;14.50;;;;;;;;5071811;28;11468;-80
2024/01/31 04:46:41;;;;;;;;;17.25;15.50;;;;;;;;5061928;28;11468;-81
2024/01/31 04:49:10;;;;;;;;;14.25;14.25;;;;;;;;5074735;28;11545;-81
2024/01/31 04:51:41;;;;;;;;;15.75;15.75;;;;;;;;5076220;28;11541;-80
2024/01/31 04:54:09;;;;;;;;;13.25;13.25;;;;;;;;5075106;28;11550;-80
2024/01/31 04:56:37;;;;;;;;;13.00;13.00;;;;;;;;5075535;28;12232;-81
2024/01/31 04:59:06;;;;;;;;;21.50;17.50;;;;;;;;5075353;28;11455;-81
2024/01/31 05:01:34;;;;;;;;;15.50;11.50;;;;;;;;5077938;28;11415;-85
2024/01/31 05:04:01;;;;;;;;;11.25;10.25;;;;;;;;5076171;28;11625;-84
2024/01/31 05:06:28;;;;;;;;;13.00;13.00;;;;;;;;5070868;28;11480;-84
2024/01/31 05:08:56;;;;;;;;;9.25;8.75;;;;;;;;5072315;28;11594;-84
2024/01/31 05:11:23;;;;;;;;;12.25;10.00;;;;;;;;5074132;28;11475;-81
2024/01/31 05:13:50;;;;;;;;;15.00;12.75;;;;;;;;5072263;28;11458;-82
2024/01/31 05:16:19;;;;;;;;;10.25;10.25;;;;;;;;5068987;28;11458;-83
2024/01/31 05:18:47;;;;;;;;;16.75;16.50;;;;;;;;5069179;28;11581;-83
2024/01/31 05:21:14;;;;;;;;;17.50;14.00;;;;;;;;5050957;28;11587;-82
2024/01/31 05:23:41;;;;;;;;;13.00;13.00;;;;;;;;5068071;28;11468;-82
2024/01/31 05:26:09;;;;;;;;;17.25;17.25;;;;;;;;5049853;28;11614;-82
2024/01/31 05:28:36;;;;;;;;;18.00;15.75;;;;;;;;5067740;28;11478;-82
2024/01/31 05:31:04;;;;;;;;;15.25;15.25;;;;;;;;5067817;28;11406;-82
2024/01/31 05:33:33;;;;;;;;;18.00;15.50;;;;;;;;5068858;28;11578;-82
2024/01/31 05:36:01;;;;;;;;;19.75;18.00;;;;;;;;5068243;28;11456;-82
2024/01/31 05:38:28;;;;;;;;;13.25;12.00;;;;;;;;5067127;28;11470;-81
2024/01/31 05:40:55;;;;;;;;;19.75;19.75;;;;;;;;5068256;28;11576;-82
2024/01/31 05:43:23;;;;;;;;;20.25;18.00;;;;;;;;5067313;28;11648;-83
2024/01/31 05:45:50;;;;;;;;;16.25;13.50;;;;;;;;5067546;28;11497;-82
2024/01/31 05:48:17;;;;;;;;;19.25;16.75;;;;;;;;5068146;28;11621;-83
2024/01/31 05:50:46;;;;;;;;;19.50;19.00;;;;;;;;5067778;28;11474;-83
2024/01/31 05:53:14;;;;;;;;;18.75;18.00;;;;;;;;5071580;28;11577;-83
2024/01/31 05:55:44;;;;;;;;;20.25;18.25;;;;;;;;5078266;28;11490;-83
2024/01/31 05:58:11;;;;;;;;;23.50;20.50;;;;;;;;5086523;28;11487;-83
2024/01/31 06:00:38;;;;;;;;;17.25;17.25;;;;;;;;5062920;28;11505;-84
2024/01/31 06:03:06;;;;;;;;;30.50;22.00;;;;;;;;5069422;28;11516;-83
2024/01/31 06:05:34;;;;;;;;;24.25;23.50;;;;;;;;5068590;28;11969;-82
2024/01/31 06:08:05;;;;;;;;;22.75;19.75;;;;;;;;5067835;28;11568;-79
2024/01/31 06:10:32;;;;;;;;;20.75;20.75;;;;;;;;5068536;28;11647;-80
2024/01/31 06:13:02;;;;;;;;;18.50;18.50;;;;;;;;5063487;28;11533;-82
2024/01/31 06:15:30;;;;;;;;;16.75;16.75;;;;;;;;5069208;28;11616;-75
2024/01/31 06:17:57;;;;;;;;;21.50;18.00;;;;;;;;5063734;28;12340;-82
2024/01/31 06:20:24;;;;;;;;;13.00;11.50;;;;;;;;5063631;28;11532;-78
2024/01/31 06:22:51;;;;;;;;;16.75;15.00;;;;;;;;5068061;28;11519;-81
2024/01/31 06:25:20;;;;;;;;;25.25;17.00;;;;;;;;5067678;28;11527;-80
2024/01/31 06:27:47;;;;;;;;;18.00;18.00;;;;;;;;5067895;28;11538;-79
2024/01/31 06:30:21;;;;;;;;;20.00;18.75;;;;;;;;5069644;28;11526;-75
2024/01/31 06:32:48;;;;;;;;;18.00;16.25;;;;;;;;5071547;28;11524;-79
2024/01/31 06:35:15;;;;;;;;;11.75;11.00;;;;;;;;5070375;28;11509;-74
2024/01/31 06:37:43;;;;;;;;;12.00;11.75;;;;;;;;5070730;28;11493;-79
2024/01/31 06:40:10;;;;;;;;;11.25;11.00;;;;;;;;5072504;28;11525;-75
2024/01/31 06:42:39;;;;;;;;;12.75;12.75;;;;;;;;5070015;28;11643;-75
2024/01/31 06:45:06;;;;;;;;;15.75;15.00;;;;;;;;5072693;28;11539;-79
2024/01/31 06:47:34;;;;;;;;;13.25;13.25;;;;;;;;5072492;28;11550;-79
2024/01/31 06:50:01;;;;;;;;;11.25;11.00;;;;;;;;5071517;28;11686;-78
2024/01/31 06:52:28;;;;;;;;;12.50;12.50;;;;;;;;5058655;28;11495;-77
2024/01/31 06:54:56;;;;;;;;;16.00;16.00;;;;;;;;5068337;28;11526;-80
2024/01/31 06:57:23;;;;;;;;;16.25;16.25;;;;;;;;5061214;28;11571;-78
2024/01/31 06:59:51;;;;;;;;;11.00;11.00;;;;;;;;5062490;28;11520;-79
2024/01/31 07:02:21;;;;;;;;;9.50;9.50;;;;;;;;5067516;28;12204;-81
2024/01/31 07:04:54;;;;;;;;;14.00;14.00;;;;;;;;5065042;28;11489;-77
2024/01/31 07:07:21;;;;;;;;;14.75;13.25;;;;;;;;5055947;28;11585;-79
2024/01/31 07:09:48;;;;;;;;;17.00;17.00;;;;;;;;5066414;28;11556;-77
2024/01/31 07:12:16;;;;;;;;;15.00;15.00;;;;;;;;5067125;28;12316;-73
2024/01/31 07:14:43;;;;;;;;;13.25;12.50;;;;;;;;5066612;28;11515;-74
2024/01/31 07:17:12;;;;;;;;;9.00;9.00;;;;;;;;5067102;28;11546;-74
2024/01/31 07:19:43;;;;;;;;;8.25;8.25;;;;;;;;5065556;28;11499;-73
2024/01/31 07:22:10;;;;;;;;;11.25;6.75;;;;;;;;5065731;28;11481;-75
2024/01/31 07:24:38;;;;;;;;;14.00;11.00;;;;;;;;5065189;28;11624;-72
2024/01/31 07:27:05;;;;;;;;;10.75;9.00;;;;;;;;5065513;28;11642;-73
2024/01/31 07:29:33;;;;;;;;;17.75;13.25;;;;;;;;5066369;28;11515;-73
2024/01/31 07:32:00;;;;;;;;;12.75;12.75;;;;;;;;5066434;28;11564;-74
2024/01/31 07:34:29;;;;;;;;;13.00;12.25;;;;;;;;5066375;28;11514;-75
2024/01/31 07:36:56;;;;;;;;;13.75;13.75;;;;;;;;5067397;28;11527;-74
2024/01/31 07:39:23;;;;;;;;;14.00;12.75;;;;;;;;5070418;28;11593;-75
2024/01/31 07:41:52;;;;;;;;;13.00;13.00;;;;;;;;5070592;28;11528;-73
2024/01/31 07:44:19;;;;;;;;;14.00;14.00;;;;;;;;5070326;28;11509;-74
2024/01/31 07:46:46;;;;;;;;;13.50;13.50;;;;;;;;5058969;28;11540;-75
2024/01/31 07:49:14;;;;;;;;;13.00;12.50;;;;;;;;5069830;28;11515;-77
2024/01/31 07:51:46;;;;;;;;;11.50;11.00;;;;;;;;5070395;28;11525;-73
2024/01/31 07:54:13;;;;;;;;;16.00;11.25;;;;;;;;5069730;28;11522;-76
2024/01/31 07:56:40;;;;;;;;;12.50;11.00;;;;;;;;5059467;28;11556;-75
2024/01/31 07:59:09;;;;;;;;;13.25;12.75;;;;;;;;5069737;28;12215;-75
2024/01/31 08:01:36;;;;;;;;;16.25;14.00;;;;;;;;5062956;28;11621;-73
2024/01/31 08:04:04;;;;;;;;;10.00;10.00;;;;;;;;5062716;28;11657;-76
2024/01/31 08:06:31;;;;;;;;;15.50;15.50;;;;;;;;5070303;28;11505;-76
2024/01/31 08:09:00;;;;;;;;;15.00;13.00;;;;;;;;5070120;28;11552;-74
2024/01/31 08:11:27;;;;;;;;;16.00;13.75;;;;;;;;5063162;28;11523;-74
2024/01/31 08:13:54;;;;;;;;;20.75;16.75;;;;;;;;5059664;28;11533;-76
2024/01/31 08:16:22;;;;;;;;;20.75;20.25;;;;;;;;5061846;28;11547;-75
2024/01/31 08:18:49;;;;;;;;;13.00;12.00;;;;;;;;5070324;28;11537;-74
2024/01/31 08:21:16;;;;;;;;;13.00;13.00;;;;;;;;5070576;28;11550;-75
2024/01/31 08:23:43;;;;;;;;;17.25;13.00;;;;;;;;5072461;28;11640;-75
2024/01/31 08:26:18;;;;;;;;;32.50;29.75;;;;;;;;5074136;28;11521;-78
2024/01/31 08:28:45;;;;;;;;;32.50;24.25;;;;;;;;5066662;28;11578;-75
2024/01/31 08:31:13;;;;;;;;;24.50;24.50;;;;;;;;5060875;28;11516;-75
2024/01/31 08:33:40;;;;;;;;;18.25;17.75;;;;;;;;5056713;28;11583;-75
2024/01/31 08:36:08;;;;;;;;;19.25;16.50;;;;;;;;5060246;28;11610;-76
2024/01/31 08:38:36;;;;;;;;;37.75;32.75;;;;;;;;5071344;28;11558;-74
2024/01/31 08:41:03;;;;;;;;;36.00;35.75;;;;;;;;5071415;28;11556;-76
2024/01/31 08:43:31;;;;;;;;;56.75;45.50;;;;;;;;5070832;28;11530;-76
2024/01/31 08:45:59;;;;;;;;;68.75;56.00;;;;;;;;5070294;28;11543;-75
2024/01/31 08:48:26;;;;;;;;;61.00;50.50;;;;;;;;5065608;28;11550;-73
2024/01/31 08:50:54;;;;;;;;;65.50;46.75;;;;;;;;5067432;28;12303;-74
2024/01/31 08:53:21;;;;;;;;;33.00;30.75;;;;;;;;5069128;28;12329;-74
2024/01/31 08:55:48;;;;;;;;;31.50;29.25;;;;;;;;5067524;28;11537;-74
2024/01/31 08:58:15;;;;;;;;;44.00;38.25;;;;;;;;5067928;28;11562;-73
2024/01/31 09:00:44;;;;;;;;;44.00;39.00;;;;;;;;5068072;28;11542;-75
2024/01/31 09:03:11;;;;;;;;;41.50;38.00;;;;;;;;5068599;28;11564;-74
2024/01/31 09:05:38;;;;;;;;;35.00;33.25;;;;;;;;5068111;28;11676;-73
2024/01/31 09:08:06;;;;;;;;;31.75;27.75;;;;;;;;5068733;28;12488;-76
2024/01/31 09:10:34;;;;;;;;;33.00;33.00;;;;;;;;5069332;28;11553;-74
2024/01/31 09:13:01;;;;;;;;;40.00;38.25;;;;;;;;5068372;28;11612;-74
2024/01/31 09:15:28;;;;;;;;;29.25;29.25;;;;;;;;5068396;28;12469;-77
2024/01/31 09:17:57;;;;;;;;;25.50;23.00;;;;;;;;5067955;28;11511;-74
2024/01/31 09:20:24;;;;;;;;;11.75;9.25;;;;;;;;5068550;28;11501;-77
2024/01/31 09:22:51;;;;;;;;;26.25;25.25;;;;;;;;5067867;28;11498;-74
2024/01/31 09:25:20;;;;;;;;;24.50;21.25;;;;;;;;5067654;28;12267;-74
2024/01/31 09:27:47;;;;;;;;;28.00;26.50;;;;;;;;5065532;28;11498;-74
2024/01/31 09:30:15;;;;;;;;;29.25;25.50;;;;;;;;5067729;28;11504;-75
2024/01/31 09:32:54;;;;;;;;;;;;;;;;;;;;;
2024/01/31 09:35:23;;;;;;;;;34.00;30.50;;;;;;;;5063135;28;11499;-74
2024/01/31 09:37:50;;;;;;;;;37.50;31.25;;;;;;;;5065990;28;11698;-77
2024/01/31 09:40:19;;;;;;;;;26.00;24.25;;;;;;;;5063030;28;11473;-73
2024/01/31 09:42:47;;;;;;;;;25.75;25.75;;;;;;;;5070068;28;11493;-75
2024/01/31 09:45:18;;;;;;;;;27.50;26.75;;;;;;;;5070015;28;11469;-77
2024/01/31 09:47:50;;;;;;;;;40.75;35.50;;;;;;;;5067604;28;11524;-76
2024/01/31 09:50:18;;;;;;;;;28.00;26.00;;;;;;;;5068086;28;11598;-74
2024/01/31 09:52:52;;;;;;;;;37.25;33.75;;;;;;;;5068709;28;11522;-79
2024/01/31 09:55:23;;;;;;;;;26.00;26.00;;;;;;;;5071979;28;11522;-83
2024/01/31 09:57:51;;;;;;;;;23.50;23.00;;;;;;;;5056815;28;11570;-82
2024/01/31 10:00:19;;;;;;;;;25.75;23.25;;;;;;;;5068860;28;11638;-74
2024/01/31 10:02:49;;;;;;;;;23.00;21.00;;;;;;;;5068250;28;11663;-78
2024/01/31 10:05:17;;;;;;;;;25.25;21.25;;;;;;;;5066622;28;11500;-79
2024/01/31 10:07:47;;;;;;;;;20.00;18.00;;;;;;;;5068507;28;11622;-79
2024/01/31 10:10:14;;;;;;;;;22.50;21.25;;;;;;;;5075178;28;12172;-78
2024/01/31 10:12:41;;;;;;;;;17.75;17.75;;;;;;;;5072421;28;11258;-78
2024/01/31 10:15:10;;;;;;;;;23.75;21.50;;;;;;;;5067882;28;11039;-79
2024/01/31 10:17:38;;;;;;;;;22.00;19.25;;;;;;;;5069827;28;11195;-74
2024/01/31 10:20:10;;;;;;;;;16.50;16.00;;;;;;;;5076958;28;11142;-75
2024/01/31 10:22:38;;;;;;;;;15.00;13.75;;;;;;;;5076661;28;10859;-76
2024/01/31 10:25:08;;;;;;;;;16.50;16.00;;;;;;;;5068915;28;10580;-77
2024/01/31 10:27:36;;;;;;;;;12.25;11.75;;;;;;;;5070558;28;10668;-76
2024/01/31 10:30:06;;;;;;;;;13.00;13.00;;;;;;;;5068754;28;10352;-78
2024/01/31 10:32:35;;;;;;;;;11.75;11.25;;;;;;;;5070209;28;10345;-75
2024/01/31 10:35:03;;;;;;;;;11.75;10.00;;;;;;;;5066690;28;10381;-77
2024/01/31 10:37:32;;;;;;;;;9.00;7.75;;;;;;;;5067375;28;10233;-75
2024/01/31 10:40:00;;;;;;;;;5.75;5.75;;;;;;;;5069167;28;10931;-80
2024/01/31 10:42:31;;;;;;;;;10.00;7.50;;;;;;;;5075296;28;10045;-80
2024/01/31 10:44:59;;;;;;;;;6.00;5.00;;;;;;;;5067727;28;9847;-82
2024/01/31 10:47:27;;;;;;;;;5.00;5.00;;;;;;;;5065418;28;9683;-79
2024/01/31 10:49:54;;;;;;;;;5.00;3.75;;;;;;;;5067445;28;9628;-79
2024/01/31 10:52:26;;;;;;;;;5.75;4.75;;;;;;;;5069248;28;9562;-78
2024/01/31 10:54:56;;;;;;;;;5.75;4.75;;;;;;;;5069134;28;9463;-75
2024/01/31 10:57:23;;;;;;;;;4.25;4.25;;;;;;;;5067032;28;9472;-76
2024/01/31 10:59:52;;;;;;;;;4.00;4.00;;;;;;;;5067164;28;9588;-76
2024/01/31 11:02:21;;;;;;;;;4.75;4.00;;;;;;;;5057788;28;9339;-79
2024/01/31 11:04:52;;;;;;;;;4.50;4.50;;;;;;;;5067211;28;9450;-77
2024/01/31 11:07:26;;;;;;;;;6.00;6.00;;;;;;;;5068883;28;10356;-80
2024/01/31 11:09:53;;;;;;;;;4.00;4.00;;;;;;;;5068375;28;9541;-77
2024/01/31 11:12:21;;;;;;;;;6.00;6.00;;;;;;;;5069451;28;9630;-80
2024/01/31 11:14:52;;;;;;;;;4.75;4.75;;;;;;;;5073208;28;9610;-77
2024/01/31 11:17:22;;;;;;;;;5.25;5.25;;;;;;;;5067114;28;9485;-77
2024/01/31 11:19:51;;;;;;;;;6.00;6.00;;;;;;;;5067847;28;9556;-77
2024/01/31 11:22:19;;;;;;;;;5.00;5.00;;;;;;;;5072669;28;9474;-81
2024/01/31 11:24:49;;;;;;;;;4.25;4.25;;;;;;;;5072446;28;9569;-78
2024/01/31 11:27:20;;;;;;;;;10.50;8.50;;;;;;;;5069251;28;9455;-71
2024/01/31 11:29:50;;;;;;;;;3.00;3.00;;;;;;;;5085429;28;9615;-72
2024/01/31 11:32:19;;;;;;;;;4.00;4.00;;;;;;;;5075326;28;9443;-77
2024/01/31 11:34:47;;;;;;;;;5.00;5.00;;;;;;;;5072307;28;9407;-77
2024/01/31 11:37:14;;;;;;;;;5.25;5.25;;;;;;;;5054318;28;9556;-83
2024/01/31 11:39:41;;;;;;;;;7.50;6.25;;;;;;;;5070777;28;9875;-76
2024/01/31 11:42:08;;;;;;;;;6.75;5.25;;;;;;;;5070437;28;9694;-76
2024/01/31 11:44:36;;;;;;;;;6.00;6.00;;;;;;;;5070485;28;9712;-75
2024/01/31 11:47:03;;;;;;;;;6.50;5.75;;;;;;;;5070417;28;9669;-76
2024/01/31 11:49:31;;;;;;;;;7.00;5.00;;;;;;;;5071469;28;9812;-78
2024/01/31 11:51:59;;;;;;;;;5.50;5.50;;;;;;;;5070233;28;9700;-78
2024/01/31 11:54:28;;;;;;;;;5.25;4.00;;;;;;;;5070966;28;9837;-79
2024/01/31 11:56:55;;;;;;;;;6.00;6.00;;;;;;;;5070117;28;9622;-78
2024/01/31 11:59:23;;;;;;;;;4.50;4.25;;;;;;;;5071150;28;9729;-77
2024/01/31 12:01:52;;;;;;;;;10.50;7.00;;;;;;;;5069837;28;9514;-78
2024/01/31 12:04:25;;;;;;;;;5.00;5.00;;;;;;;;5072192;28;9614;-78
2024/01/31 12:07:04;;;;;;;;;8.00;6.25;;;;;;;;5072888;28;9540;-80
2024/01/31 12:09:36;;;;;;;;;6.75;6.75;;;;;;;;5076739;28;9574;-75
2024/01/31 12:12:06;;;;;;;;;9.00;7.00;;;;;;;;5076335;28;9400;-82
2024/01/31 12:14:33;;;;;;;;;7.00;7.00;;;;;;;;5077204;28;9163;-76
2024/01/31 12:17:07;;;;;;;;;5.00;5.00;;;;;;;;5075832;28;9275;-74
2024/01/31 12:19:34;;;;;;;;;4.67;4.67;;;;;;;;5069875;28;9168;-79
2024/01/31 12:22:07;;;;;;;;;4.67;4.67;;;;;;;;5071955;28;9101;-74
2024/01/31 12:24:34;;;;;;;;;5.67;4.00;;;;;;;;5068089;28;9934;-73
2024/01/31 12:27:05;;;;;;;;;4.00;4.00;;;;;;;;5068114;28;10143;-73
2024/01/31 12:29:33;;;;;;;;;4.00;4.00;;;;;;;;5068371;28;9245;-80
2024/01/31 12:32:02;;;;;;;;;6.00;4.67;;;;;;;;5069797;28;9246;-77
2024/01/31 12:34:30;;;;;;;;;7.00;5.00;;;;;;;;5070850;28;9182;-75
2024/01/31 12:36:57;;;;;;;;;6.00;4.67;;;;;;;;5070095;28;9205;-77
2024/01/31 12:39:29;;;;;;;;;5.00;5.00;;;;;;;;5064537;28;9179;-76
2024/01/31 12:41:56;;;;;;;;;5.00;5.00;;;;;;;;5070000;28;9562;-74
2024/01/31 12:44:36;;;;;;;;;5.33;4.67;;;;;;;;5058582;28;9011;-78
2024/01/31 12:47:05;;;;;;;;;5.33;5.33;;;;;;;;5053900;28;9159;-78
2024/01/31 12:49:33;;;;;;;;;5.00;5.00;;;;;;;;5069869;28;9251;-76
2024/01/31 12:52:01;;;;;;;;;7.00;5.33;;;;;;;;5068653;28;9280;-75
2024/01/31 12:54:32;;;;;;;;;6.33;5.00;;;;;;;;5069490;28;9312;-73
2024/01/31 12:57:02;;;;;;;;;5.00;5.00;;;;;;;;5071613;28;9228;-78
2024/01/31 12:59:31;;;;;;;;;7.33;7.33;;;;;;;;5070634;28;9247;-72
2024/01/31 13:02:01;;;;;;;;;6.00;6.00;;;;;;;;5068196;28;9191;-74
2024/01/31 13:04:29;;;;;;;;;5.00;5.00;;;;;;;;5066412;28;9194;-76
2024/01/31 13:06:56;;;;;;;;;7.00;6.00;;;;;;;;5064662;28;9089;-75
2024/01/31 13:09:23;;;;;;;;;7.00;7.00;;;;;;;;5067892;28;9069;-72
2024/01/31 13:11:52;;;;;;;;;8.00;6.00;;;;;;;;5065224;28;9364;-79
2024/01/31 13:14:21;;;;;;;;;5.00;5.00;;;;;;;;5068854;28;9159;-73
2024/01/31 13:16:48;;;;;;;;;10.00;8.00;;;;;;;;5068958;28;9009;-74
2024/01/31 13:19:20;;;;;;;;;6.00;6.00;;;;;;;;5070405;28;10033;-74
2024/01/31 13:21:49;;;;;;;;;8.67;8.67;;;;;;;;5070727;28;8971;-73
2024/01/31 13:24:16;;;;;;;;;12.67;7.33;;;;;;;;5067365;28;9096;-74
2024/01/31 13:26:44;;;;;;;;;5.00;5.00;;;;;;;;5066646;28;9030;-77
2024/01/31 13:29:15;;;;;;;;;7.67;7.67;;;;;;;;5063581;28;9040;-75
2024/01/31 13:31:42;;;;;;;;;9.33;9.00;;;;;;;;5058883;28;8982;-75
2024/01/31 13:34:10;;;;;;;;;6.00;6.00;;;;;;;;5060565;28;9203;-74
2024/01/31 13:36:37;;;;;;;;;10.33;9.33;;;;;;;;5059300;28;9008;-73
2024/01/31 13:39:05;;;;;;;;;8.67;7.00;;;;;;;;5066821;28;9073;-73
2024/01/31 13:41:32;;;;;;;;;7.33;7.33;;;;;;;;5067544;28;9125;-73
2024/01/31 13:44:05;;;;;;;;;8.00;8.00;;;;;;;;5064710;28;9011;-73
2024/01/31 13:46:34;;;;;;;;;8.00;8.00;;;;;;;;5070989;28;9017;-77
2024/01/31 13:49:01;;;;;;;;;9.00;7.00;;;;;;;;5072384;28;9032;-74
2024/01/31 13:51:28;;;;;;;;;8.33;8.33;;;;;;;;5080252;28;9126;-72
2024/01/31 13:53:56;;;;;;;;;9.00;9.00;;;;;;;;5070456;28;9035;-77
2024/01/31 13:56:23;;;;;;;;;8.33;8.33;;;;;;;;5071166;28;8856;-75
2024/01/31 13:58:50;;;;;;;;;7.00;7.00;;;;;;;;5072423;28;8937;-75
2024/01/31 14:01:18;;;;;;;;;10.00;8.00;;;;;;;;5070433;28;8964;-76
2024/01/31 14:03:46;;;;;;;;;14.67;10.00;;;;;;;;5070737;28;9031;-75
2024/01/31 14:06:14;;;;;;;;;9.33;7.67;;;;;;;;5073123;28;8952;-74
2024/01/31 14:08:41;;;;;;;;;10.67;9.33;;;;;;;;5072210;28;8946;-77
2024/01/31 14:11:10;;;;;;;;;9.00;9.00;;;;;;;;5072178;28;9041;-77
2024/01/31 14:13:37;;;;;;;;;12.67;12.67;;;;;;;;5069614;28;9012;-73
2024/01/31 14:16:07;;;;;;;;;12.00;12.00;;;;;;;;5067011;28;9088;-72
2024/01/31 14:18:34;;;;;;;;;15.00;15.00;;;;;;;;5057583;28;9263;-73
2024/01/31 14:21:03;;;;;;;;;14.67;14.67;;;;;;;;5067279;28;9275;-74
2024/01/31 14:23:30;;;;;;;;;13.00;13.00;;;;;;;;5068715;28;10056;-72
2024/01/31 14:25:57;;;;;;;;;13.00;13.00;;;;;;;;5066609;28;9406;-72
2024/01/31 14:28:24;;;;;;;;;9.33;9.33;;;;;;;;5065528;28;9296;-73
2024/01/31 14:30:54;;;;;;;;;11.00;11.00;;;;;;;;5066709;28;9324;-75
2024/01/31 14:33:21;;;;;;;;;15.00;15.00;;;;;;;;5067701;28;9972;-74
2024/01/31 14:35:48;;;;;;;;;10.00;10.00;;;;;;;;5063605;28;9386;-75
2024/01/31 14:38:17;;;;;;;;;9.00;9.00;;;;;;;;5063950;28;9310;-73
2024/01/31 14:40:44;;;;;;;;;9.33;9.33;;;;;;;;5063521;28;9350;-75